sensor_id;sensor_type;location;lat;lon;timestamp;pressure;altitude;pressure_sealevel;temperature;humidity
51081;BME280;37130;55.670;37.596;2023-12-20T00:02:25;97730.19;;;2.91;100.00
51081;BME280;37130;55.670;37.596;2023-12-20T00:04:53;97732.53;;;2.78;100.00
51081;BME280;37130;55.670;37.596;2023-12-20T00:07:20;97698.97;;;2.50;100.00
51081;BME280;37130;55.670;37.596;2023-12-20T00:09:48;97726.59;;;2.56;100.00
51081;BME280;37130;55.670;37.596;2023-12-20T00:12:15;97719.38;;;2.42;100.00
51081;BME280;37130;55.670;37.596;2023-12-20T00:14:43;97722.03;;;2.40;100.00
51081;BME280;37130;55.670;37.596;2023-12-20T00:17:10;97724.41;;;2.47;100.00
51081;BME280;37130;55.670;37.596;2023-12-20T00:19:38;97731.91;;;2.54;100.00
51081;BME280;37130;55.670;37.596;2023-12-20T00:22:05;97734.06;;;2.63;100.00
51081;BME280;37130;55.670;37.596;2023-12-20T00:24:33;97701.88;;;2.63;100.00
51081;BME280;37130;55.670;37.596;2023-12-20T00:27:00;97742.53;;;3.06;100.00
51081;BME280;37130;55.670;37.596;2023-12-20T00:29:28;97744.56;;;3.19;100.00
51081;BME280;37130;55.670;37.596;2023-12-20T00:31:55;97739.06;;;3.25;100.00
51081;BME280;37130;55.670;37.596;2023-12-20T00:34:23;97727.34;;;3.32;100.00
51081;BME280;37130;55.670;37.596;2023-12-20T00:36:51;97728.75;;;3.39;100.00
51081;BME280;37130;55.670;37.596;2023-12-20T00:39:19;97742.41;;;3.46;100.00
51081;BME280;37130;55.670;37.596;2023-12-20T00:41:46;97735.47;;;3.45;100.00
51081;BME280;37130;55.670;37.596;2023-12-20T00:44:13;97743.78;;;3.53;100.00
51081;BME280;37130;55.670;37.596;2023-12-20T00:46:41;97743.50;;;3.59;100.00
51081;BME280;37130;55.670;37.596;2023-12-20T00:49:09;97741.56;;;3.63;100.00
51081;BME280;37130;55.670;37.596;2023-12-20T00:51:36;97739.63;;;3.66;100.00
51081;BME280;37130;55.670;37.596;2023-12-20T00:54:04;97741.41;;;3.66;100.00
51081;BME280;37130;55.670;37.596;2023-12-20T00:56:31;97740.56;;;3.65;100.00
51081;BME280;37130;55.670;37.596;2023-12-20T00:58:59;97742.41;;;3.63;100.00
51081;BME280;37130;55.670;37.596;2023-12-20T01:01:27;97737.34;;;3.60;100.00
51081;BME280;37130;55.670;37.596;2023-12-20T01:03:55;97733.88;;;3.60;100.00
51081;BME280;37130;55.670;37.596;2023-12-20T01:06:22;97728.69;;;3.58;100.00
51081;BME280;37130;55.670;37.596;2023-12-20T01:08:50;97726.09;;;3.58;100.00
51081;BME280;37130;55.670;37.596;2023-12-20T01:11:17;97726.09;;;3.58;100.00
51081;BME280;37130;55.670;37.596;2023-12-20T01:13:45;97725.31;;;3.56;100.00
51081;BME280;37130;55.670;37.596;2023-12-20T01:16:12;97708.50;;;3.43;100.00
51081;BME280;37130;55.670;37.596;2023-12-20T01:18:40;97708.22;;;3.32;100.00
51081;BME280;37130;55.670;37.596;2023-12-20T01:21:07;97710.34;;;3.23;100.00
51081;BME280;37130;55.670;37.596;2023-12-20T01:23:34;97678.75;;;2.92;100.00
51081;BME280;37130;55.670;37.596;2023-12-20T01:26:02;97704.34;;;3.21;100.00
51081;BME280;37130;55.670;37.596;2023-12-20T01:28:31;97712.03;;;3.24;100.00
51081;BME280;37130;55.670;37.596;2023-12-20T01:30:59;97709.97;;;3.31;100.00
51081;BME280;37130;55.670;37.596;2023-12-20T01:33:27;97715.84;;;3.36;100.00
51081;BME280;37130;55.670;37.596;2023-12-20T01:35:54;97713.06;;;3.39;100.00
51081;BME280;37130;55.670;37.596;2023-12-20T01:38:21;97719.06;;;3.41;100.00
51081;BME280;37130;55.670;37.596;2023-12-20T01:40:49;97705.00;;;3.44;100.00
51081;BME280;37130;55.670;37.596;2023-12-20T01:43:17;97711.06;;;3.44;100.00
51081;BME280;37130;55.670;37.596;2023-12-20T01:45:44;97711.28;;;3.40;100.00
51081;BME280;37130;55.670;37.596;2023-12-20T01:48:12;97645.91;;;3.03;100.00
51081;BME280;37130;55.670;37.596;2023-12-20T01:50:40;97638.31;;;2.99;100.00
51081;BME280;37130;55.670;37.596;2023-12-20T01:53:10;97679.75;;;3.25;100.00
51081;BME280;37130;55.670;37.596;2023-12-20T01:55:40;97684.97;;;3.25;100.00
51081;BME280;37130;55.670;37.596;2023-12-20T01:58:08;97677.03;;;3.27;100.00
51081;BME280;37130;55.670;37.596;2023-12-20T02:00:37;97686.19;;;3.18;100.00
51081;BME280;37130;55.670;37.596;2023-12-20T02:03:05;97691.25;;;3.04;100.00
51081;BME280;37130;55.670;37.596;2023-12-20T02:05:34;97595.75;;;2.41;100.00
51081;BME280;37130;55.670;37.596;2023-12-20T02:08:02;97680.38;;;2.94;100.00
51081;BME280;37130;55.670;37.596;2023-12-20T02:10:30;97695.34;;;2.91;100.00
51081;BME280;37130;55.670;37.596;2023-12-20T02:12:58;97693.66;;;2.90;100.00
51081;BME280;37130;55.670;37.596;2023-12-20T02:15:26;97676.13;;;2.92;100.00
51081;BME280;37130;55.670;37.596;2023-12-20T02:17:54;97678.59;;;2.95;100.00
51081;BME280;37130;55.670;37.596;2023-12-20T02:20:41;97676.63;;;3.00;100.00
51081;BME280;37130;55.670;37.596;2023-12-20T02:23:09;97670.84;;;3.11;100.00
51081;BME280;37130;55.670;37.596;2023-12-20T02:25:36;97667.47;;;3.08;100.00
51081;BME280;37130;55.670;37.596;2023-12-20T02:28:05;97666.84;;;3.03;100.00
51081;BME280;37130;55.670;37.596;2023-12-20T02:30:34;97674.63;;;3.05;100.00
51081;BME280;37130;55.670;37.596;2023-12-20T02:33:03;97590.72;;;2.56;100.00
51081;BME280;37130;55.670;37.596;2023-12-20T02:35:34;97666.47;;;3.11;100.00
51081;BME280;37130;55.670;37.596;2023-12-20T02:38:02;97663.63;;;3.16;100.00
51081;BME280;37130;55.670;37.596;2023-12-20T02:40:29;97676.41;;;3.22;100.00
51081;BME280;37130;55.670;37.596;2023-12-20T02:42:57;97666.50;;;3.28;100.00
51081;BME280;37130;55.670;37.596;2023-12-20T02:45:26;97575.13;;;2.72;100.00
51081;BME280;37130;55.670;37.596;2023-12-20T02:47:53;97672.41;;;3.32;100.00
51081;BME280;37130;55.670;37.596;2023-12-20T02:50:21;97632.78;;;3.05;100.00
51081;BME280;37130;55.670;37.596;2023-12-20T02:52:49;97677.59;;;3.34;100.00
51081;BME280;37130;55.670;37.596;2023-12-20T02:55:16;97671.41;;;3.35;100.00
51081;BME280;37130;55.670;37.596;2023-12-20T02:57:44;97625.72;;;3.07;100.00
51081;BME280;37130;55.670;37.596;2023-12-20T03:00:12;97673.81;;;3.39;100.00
51081;BME280;37130;55.670;37.596;2023-12-20T03:02:39;97672.03;;;3.40;100.00
51081;BME280;37130;55.670;37.596;2023-12-20T03:05:07;97665.81;;;3.42;100.00
51081;BME280;37130;55.670;37.596;2023-12-20T03:07:36;97662.34;;;3.42;100.00
51081;BME280;37130;55.670;37.596;2023-12-20T03:10:05;97664.91;;;3.43;100.00
51081;BME280;37130;55.670;37.596;2023-12-20T03:12:46;97662.28;;;3.43;100.00
51081;BME280;37130;55.670;37.596;2023-12-20T03:15:14;97661.34;;;3.44;100.00
51081;BME280;37130;55.670;37.596;2023-12-20T03:17:42;97673.59;;;3.44;100.00
51081;BME280;37130;55.670;37.596;2023-12-20T03:20:10;97677.06;;;3.44;100.00
51081;BME280;37130;55.670;37.596;2023-12-20T03:22:37;97669.13;;;3.46;100.00
51081;BME280;37130;55.670;37.596;2023-12-20T03:25:05;97668.38;;;3.44;100.00
51081;BME280;37130;55.670;37.596;2023-12-20T03:27:32;97665.75;;;3.44;100.00
51081;BME280;37130;55.670;37.596;2023-12-20T03:30:00;97640.97;;;3.34;100.00
51081;BME280;37130;55.670;37.596;2023-12-20T03:32:29;97666.66;;;3.43;100.00
51081;BME280;37130;55.670;37.596;2023-12-20T03:34:57;97659.44;;;3.31;100.00
51081;BME280;37130;55.670;37.596;2023-12-20T03:37:24;97666.75;;;3.41;100.00
51081;BME280;37130;55.670;37.596;2023-12-20T03:39:52;97665.91;;;3.41;100.00
51081;BME280;37130;55.670;37.596;2023-12-20T03:42:20;97670.19;;;3.42;100.00
51081;BME280;37130;55.670;37.596;2023-12-20T03:44:47;97665.97;;;3.39;100.00
51081;BME280;37130;55.670;37.596;2023-12-20T03:47:15;97659.78;;;3.40;100.00
51081;BME280;37130;55.670;37.596;2023-12-20T03:49:42;97674.59;;;3.41;100.00
51081;BME280;37130;55.670;37.596;2023-12-20T03:52:10;97678.06;;;3.42;100.00
51081;BME280;37130;55.670;37.596;2023-12-20T03:54:37;97670.97;;;3.44;100.00
51081;BME280;37130;55.670;37.596;2023-12-20T03:57:05;97578.69;;;2.88;100.00
51081;BME280;37130;55.670;37.596;2023-12-20T03:59:36;97676.06;;;3.47;100.00
51081;BME280;37130;55.670;37.596;2023-12-20T04:02:04;97670.66;;;3.50;100.00
51081;BME280;37130;55.670;37.596;2023-12-20T04:04:32;97675.91;;;3.50;100.00
51081;BME280;37130;55.670;37.596;2023-12-20T04:06:59;97676.84;;;3.49;100.00
51081;BME280;37130;55.670;37.596;2023-12-20T04:09:27;97685.38;;;3.53;100.00
51081;BME280;37130;55.670;37.596;2023-12-20T04:11:54;97679.91;;;3.57;100.00
51081;BME280;37130;55.670;37.596;2023-12-20T04:14:22;97641.19;;;3.29;100.00
51081;BME280;37130;55.670;37.596;2023-12-20T04:16:49;97687.59;;;3.60;100.00
51081;BME280;37130;55.670;37.596;2023-12-20T04:19:17;97680.59;;;3.61;100.00
51081;BME280;37130;55.670;37.596;2023-12-20T04:21:44;97681.59;;;3.58;100.00
51081;BME280;37130;55.670;37.596;2023-12-20T04:24:12;97681.69;;;3.57;100.00
51081;BME280;37130;55.670;37.596;2023-12-20T04:26:39;97678.19;;;3.56;100.00
51081;BME280;37130;55.670;37.596;2023-12-20T04:29:07;97684.38;;;3.55;100.00
51081;BME280;37130;55.670;37.596;2023-12-20T04:31:34;97693.06;;;3.56;100.00
51081;BME280;37130;55.670;37.596;2023-12-20T04:34:02;97696.38;;;3.59;100.00
51081;BME280;37130;55.670;37.596;2023-12-20T04:36:29;97691.16;;;3.59;100.00
51081;BME280;37130;55.670;37.596;2023-12-20T04:38:57;97691.16;;;3.59;100.00
51081;BME280;37130;55.670;37.596;2023-12-20T04:41:25;97693.22;;;3.53;100.00
51081;BME280;37130;55.670;37.596;2023-12-20T04:43:52;97700.91;;;3.56;100.00
51081;BME280;37130;55.670;37.596;2023-12-20T04:46:19;97698.22;;;3.57;100.00
51081;BME280;37130;55.670;37.596;2023-12-20T04:48:47;97701.75;;;3.56;100.00
51081;BME280;37130;55.670;37.596;2023-12-20T04:51:15;97702.69;;;3.55;100.00
51081;BME280;37130;55.670;37.596;2023-12-20T04:53:43;97640.78;;;3.19;100.00
51081;BME280;37130;55.670;37.596;2023-12-20T04:56:10;97696.84;;;3.50;100.00
51081;BME280;37130;55.670;37.596;2023-12-20T04:58:38;97689.66;;;3.36;100.00
51081;BME280;37130;55.670;37.596;2023-12-20T05:01:06;97698.06;;;3.43;100.00
51081;BME280;37130;55.670;37.596;2023-12-20T05:03:34;97649.94;;;3.11;100.00
51081;BME280;37130;55.670;37.596;2023-12-20T05:06:01;97693.81;;;3.40;100.00
51081;BME280;37130;55.670;37.596;2023-12-20T05:08:29;97700.34;;;3.32;100.00
51081;BME280;37130;55.670;37.596;2023-12-20T05:10:56;97700.19;;;3.17;100.00
51081;BME280;37130;55.670;37.596;2023-12-20T05:13:24;97698.94;;;3.07;100.00
51081;BME280;37130;55.670;37.596;2023-12-20T05:16:08;97700.63;;;3.08;100.00
51081;BME280;37130;55.670;37.596;2023-12-20T05:18:36;97705.22;;;3.03;100.00
51081;BME280;37130;55.670;37.596;2023-12-20T05:21:04;97705.44;;;2.98;100.00
51081;BME280;37130;55.670;37.596;2023-12-20T05:23:31;97710.47;;;3.03;100.00
51081;BME280;37130;55.670;37.596;2023-12-20T05:25:59;97712.00;;;3.07;100.00
51081;BME280;37130;55.670;37.596;2023-12-20T05:28:26;97711.53;;;2.99;100.00
51081;BME280;37130;55.670;37.596;2023-12-20T05:30:54;97714.94;;;2.82;100.00
51081;BME280;37130;55.670;37.596;2023-12-20T05:33:22;97706.53;;;2.75;100.00
51081;BME280;37130;55.670;37.596;2023-12-20T05:35:49;97711.25;;;2.86;100.00
51081;BME280;37130;55.670;37.596;2023-12-20T05:38:17;97716.97;;;2.94;100.00
51081;BME280;37130;55.670;37.596;2023-12-20T05:40:44;97716.00;;;2.97;100.00
51081;BME280;37130;55.670;37.596;2023-12-20T05:43:12;97708.41;;;2.91;100.00
51081;BME280;37130;55.670;37.596;2023-12-20T05:45:40;97713.53;;;2.94;100.00
51081;BME280;37130;55.670;37.596;2023-12-20T05:48:08;97704.06;;;2.91;100.00
51081;BME280;37130;55.670;37.596;2023-12-20T05:50:36;97718.75;;;2.94;100.00
51081;BME280;37130;55.670;37.596;2023-12-20T05:53:03;97734.00;;;2.84;100.00
51081;BME280;37130;55.670;37.596;2023-12-20T05:55:32;97723.91;;;2.76;100.00
51081;BME280;37130;55.670;37.596;2023-12-20T05:57:59;97729.06;;;2.78;100.00
51081;BME280;37130;55.670;37.596;2023-12-20T06:00:28;97726.38;;;2.79;100.00
51081;BME280;37130;55.670;37.596;2023-12-20T06:02:55;97726.31;;;2.81;100.00
51081;BME280;37130;55.670;37.596;2023-12-20T06:05:23;97738.31;;;2.85;100.00
51081;BME280;37130;55.670;37.596;2023-12-20T06:07:50;97731.94;;;2.91;100.00
51081;BME280;37130;55.670;37.596;2023-12-20T06:10:18;97729.91;;;2.97;100.00
51081;BME280;37130;55.670;37.596;2023-12-20T06:12:46;97708.97;;;2.97;100.00
51081;BME280;37130;55.670;37.596;2023-12-20T06:15:17;97739.63;;;3.13;100.00
51081;BME280;37130;55.670;37.596;2023-12-20T06:17:44;97741.16;;;3.17;100.00
51081;BME280;37130;55.670;37.596;2023-12-20T06:20:15;97733.56;;;3.12;100.00
51081;BME280;37130;55.670;37.596;2023-12-20T06:22:43;97722.47;;;3.07;100.00
51081;BME280;37130;55.670;37.596;2023-12-20T06:25:10;97742.53;;;3.25;100.00
51081;BME280;37130;55.670;37.596;2023-12-20T06:27:38;97744.69;;;3.35;100.00
51081;BME280;37130;55.670;37.596;2023-12-20T06:30:06;97739.28;;;3.38;100.00
51081;BME280;37130;55.670;37.596;2023-12-20T06:32:33;97724.75;;;3.32;100.00
51081;BME280;37130;55.670;37.596;2023-12-20T06:35:02;97747.75;;;3.43;100.00
51081;BME280;37130;55.670;37.596;2023-12-20T06:37:30;97747.75;;;3.43;100.00
51081;BME280;37130;55.670;37.596;2023-12-20T06:39:57;97739.78;;;3.46;100.00
51081;BME280;37130;55.670;37.596;2023-12-20T06:42:25;97738.38;;;3.56;100.00
51081;BME280;37130;55.670;37.596;2023-12-20T06:44:52;97744.81;;;3.68;100.00
51081;BME280;37130;55.670;37.596;2023-12-20T06:47:20;97698.59;;;3.49;100.00
51081;BME280;37130;55.670;37.596;2023-12-20T06:49:48;97730.94;;;3.83;100.00
51081;BME280;37130;55.670;37.596;2023-12-20T06:52:16;97689.00;;;3.67;100.00
51081;BME280;37130;55.670;37.596;2023-12-20T06:54:43;97740.41;;;4.03;100.00
51081;BME280;37130;55.670;37.596;2023-12-20T06:57:11;97739.00;;;4.13;100.00
51081;BME280;37130;55.670;37.596;2023-12-20T06:59:40;97735.31;;;4.17;100.00
51081;BME280;37130;55.670;37.596;2023-12-20T07:02:11;97742.41;;;4.15;100.00
51081;BME280;37130;55.670;37.596;2023-12-20T07:04:41;97736.38;;;4.13;100.00
51081;BME280;37130;55.670;37.596;2023-12-20T07:07:09;97737.47;;;4.09;100.00
51081;BME280;37130;55.670;37.596;2023-12-20T07:09:36;97736.63;;;4.09;100.00
51081;BME280;37130;55.670;37.596;2023-12-20T07:12:05;97735.69;;;4.10;100.00
51081;BME280;37130;55.670;37.596;2023-12-20T07:14:33;97742.63;;;4.11;100.00
51081;BME280;37130;55.670;37.596;2023-12-20T07:17:01;97730.53;;;4.08;100.00
51081;BME280;37130;55.670;37.596;2023-12-20T07:19:29;97731.13;;;4.13;100.00
51081;BME280;37130;55.670;37.596;2023-12-20T07:21:56;97744.06;;;4.16;100.00
51081;BME280;37130;55.670;37.596;2023-12-20T07:24:24;97752.81;;;4.17;100.00
51081;BME280;37130;55.670;37.596;2023-12-20T07:26:51;97752.66;;;4.20;100.00
51081;BME280;37130;55.670;37.596;2023-12-20T07:29:19;97754.88;;;4.28;100.00
51081;BME280;37130;55.670;37.596;2023-12-20T07:31:46;97746.16;;;4.27;100.00
51081;BME280;37130;55.670;37.596;2023-12-20T07:34:14;97745.47;;;4.24;100.00
51081;BME280;37130;55.670;37.596;2023-12-20T07:36:42;97752.16;;;4.29;100.00
51081;BME280;37130;55.670;37.596;2023-12-20T07:39:09;97728.06;;;4.05;100.00
51081;BME280;37130;55.670;37.596;2023-12-20T07:41:37;97770.75;;;4.25;100.00
51081;BME280;37130;55.670;37.596;2023-12-20T07:44:05;97763.50;;;4.30;100.00
51081;BME280;37130;55.670;37.596;2023-12-20T07:46:33;97766.13;;;4.30;100.00
51081;BME280;37130;55.670;37.596;2023-12-20T07:49:01;97768.97;;;4.25;100.00
51081;BME280;37130;55.670;37.596;2023-12-20T07:51:29;97774.22;;;4.25;100.00
51081;BME280;37130;55.670;37.596;2023-12-20T07:53:56;97774.38;;;4.22;100.00
51081;BME280;37130;55.670;37.596;2023-12-20T07:56:24;97783.69;;;4.28;100.00
51081;BME280;37130;55.670;37.596;2023-12-20T07:58:51;97775.28;;;4.21;100.00
51081;BME280;37130;55.670;37.596;2023-12-20T08:01:20;97745.88;;;3.99;100.00
51081;BME280;37130;55.670;37.596;2023-12-20T08:03:49;97726.84;;;3.95;100.00
51081;BME280;37130;55.670;37.596;2023-12-20T08:06:18;97781.97;;;4.27;100.00
51081;BME280;37130;55.670;37.596;2023-12-20T08:08:46;97781.13;;;4.26;100.00
51081;BME280;37130;55.670;37.596;2023-12-20T08:11:28;97788.16;;;4.26;100.00
51081;BME280;37130;55.670;37.596;2023-12-20T08:13:56;97771.16;;;4.17;100.00
51081;BME280;37130;55.670;37.596;2023-12-20T08:16:24;97776.28;;;4.36;100.00
51081;BME280;37130;55.670;37.596;2023-12-20T08:18:51;97779.09;;;4.49;100.00
51081;BME280;37130;55.670;37.596;2023-12-20T08:21:19;97786.19;;;4.47;100.00
51081;BME280;37130;55.670;37.596;2023-12-20T08:23:49;97781.03;;;4.45;100.00
51081;BME280;37130;55.670;37.596;2023-12-20T08:26:19;97777.31;;;4.49;100.00
51081;BME280;37130;55.670;37.596;2023-12-20T08:28:48;97777.38;;;4.65;100.00
51081;BME280;37130;55.670;37.596;2023-12-20T08:31:16;97776.13;;;4.72;100.00
51081;BME280;37130;55.670;37.596;2023-12-20T08:33:45;97782.97;;;4.75;100.00
51081;BME280;37130;55.670;37.596;2023-12-20T08:36:13;97776.78;;;4.76;100.00
51081;BME280;37130;55.670;37.596;2023-12-20T08:38:40;97773.09;;;4.80;100.00
51081;BME280;37130;55.670;37.596;2023-12-20T08:41:08;97767.91;;;4.78;100.00
51081;BME280;37130;55.670;37.596;2023-12-20T08:43:35;97766.41;;;4.74;100.00
51081;BME280;37130;55.670;37.596;2023-12-20T08:46:03;97761.47;;;4.68;100.00
51081;BME280;37130;55.670;37.596;2023-12-20T08:48:31;97774.16;;;4.76;100.00
51081;BME280;37130;55.670;37.596;2023-12-20T08:50:58;97744.22;;;4.64;100.00
51081;BME280;37130;55.670;37.596;2023-12-20T08:53:26;97774.94;;;4.78;100.00
51081;BME280;37130;55.670;37.596;2023-12-20T08:55:54;97763.34;;;4.82;100.00
51081;BME280;37130;55.670;37.596;2023-12-20T08:58:21;97763.34;;;4.82;100.00
51081;BME280;37130;55.670;37.596;2023-12-20T09:00:49;97758.09;;;4.82;100.00
51081;BME280;37130;55.670;37.596;2023-12-20T09:03:17;97763.28;;;4.83;100.00
51081;BME280;37130;55.670;37.596;2023-12-20T09:05:44;97754.13;;;4.75;100.00
51081;BME280;37130;55.670;37.596;2023-12-20T09:08:12;97772.31;;;4.78;100.00
51081;BME280;37130;55.670;37.596;2023-12-20T09:10:40;97758.19;;;4.65;100.00
51081;BME280;37130;55.670;37.596;2023-12-20T09:13:07;97768.50;;;4.68;100.00
51081;BME280;37130;55.670;37.596;2023-12-20T09:15:35;97735.47;;;4.48;100.00
51081;BME280;37130;55.670;37.596;2023-12-20T09:18:03;97765.09;;;4.66;100.00
51081;BME280;37130;55.670;37.596;2023-12-20T09:20:31;97753.84;;;4.64;100.00
51081;BME280;37130;55.670;37.596;2023-12-20T09:23:00;97763.06;;;4.71;100.00
51081;BME280;37130;55.670;37.596;2023-12-20T09:25:28;97753.16;;;4.60;100.00
51081;BME280;37130;55.670;37.596;2023-12-20T09:27:57;97767.81;;;4.64;100.00
51081;BME280;37130;55.670;37.596;2023-12-20T09:30:25;97757.47;;;4.61;100.00
51081;BME280;37130;55.670;37.596;2023-12-20T09:32:54;97761.69;;;4.64;100.00
51081;BME280;37130;55.670;37.596;2023-12-20T09:35:22;97756.47;;;4.64;100.00
51081;BME280;37130;55.670;37.596;2023-12-20T09:37:51;97751.22;;;4.64;100.00
51081;BME280;37130;55.670;37.596;2023-12-20T09:40:19;97753.53;;;4.70;100.00
51081;BME280;37130;55.670;37.596;2023-12-20T09:42:51;97729.50;;;4.61;100.00
51081;BME280;37130;55.670;37.596;2023-12-20T09:45:22;97743.88;;;4.70;100.00
51081;BME280;37130;55.670;37.596;2023-12-20T09:47:54;97741.94;;;4.74;100.00
51081;BME280;37130;55.670;37.596;2023-12-20T09:50:24;97732.38;;;4.73;100.00
51081;BME280;37130;55.670;37.596;2023-12-20T09:52:53;97748.88;;;4.75;100.00
51081;BME280;37130;55.670;37.596;2023-12-20T09:55:21;97706.56;;;4.49;100.00
51081;BME280;37130;55.670;37.596;2023-12-20T09:57:50;97734.34;;;4.69;100.00
51081;BME280;37130;55.670;37.596;2023-12-20T10:00:18;97742.19;;;4.69;100.00
51081;BME280;37130;55.670;37.596;2023-12-20T10:02:59;97743.44;;;4.62;100.00
51081;BME280;37130;55.670;37.596;2023-12-20T10:05:29;97755.38;;;4.68;100.00
51081;BME280;37130;55.670;37.596;2023-12-20T10:07:58;97760.78;;;4.65;100.00
51081;BME280;37130;55.670;37.596;2023-12-20T10:10:27;97747.09;;;4.59;100.00
51081;BME280;37130;55.670;37.596;2023-12-20T10:13:10;97753.25;;;4.58;100.00
51081;BME280;37130;55.670;37.596;2023-12-20T10:15:38;97671.06;;;4.10;100.00
51081;BME280;37130;55.670;37.596;2023-12-20T10:18:07;97749.78;;;4.58;100.00
51081;BME280;37130;55.670;37.596;2023-12-20T10:20:34;97744.94;;;4.50;100.00
51081;BME280;37130;55.670;37.596;2023-12-20T10:23:03;97752.56;;;4.55;100.00
51081;BME280;37130;55.670;37.596;2023-12-20T10:25:31;97764.16;;;4.51;100.00
51081;BME280;37130;55.670;37.596;2023-12-20T10:28:13;97748.97;;;4.40;100.00
51081;BME280;37130;55.670;37.596;2023-12-20T10:30:41;97761.06;;;4.43;100.00
51081;BME280;37130;55.670;37.596;2023-12-20T10:33:10;97705.34;;;4.06;100.00
51081;BME280;37130;55.670;37.596;2023-12-20T10:35:39;97766.84;;;4.49;100.00
51081;BME280;37130;55.670;37.596;2023-12-20T10:38:12;97757.53;;;4.44;100.00
51081;BME280;37130;55.670;37.596;2023-12-20T10:40:42;97695.47;;;4.11;100.00
51081;BME280;37130;55.670;37.596;2023-12-20T10:43:12;97748.47;;;4.33;100.00
51081;BME280;37130;55.670;37.596;2023-12-20T10:45:41;97766.31;;;4.43;100.00
51081;BME280;37130;55.670;37.596;2023-12-20T10:48:10;97667.16;;;3.84;100.00
51081;BME280;37130;55.670;37.596;2023-12-20T10:50:41;97760.94;;;4.46;100.00
51081;BME280;37130;55.670;37.596;2023-12-20T10:53:10;97750.41;;;4.30;100.00
51081;BME280;37130;55.670;37.596;2023-12-20T10:55:40;97751.84;;;4.35;100.00
51081;BME280;37130;55.670;37.596;2023-12-20T10:58:08;97768.78;;;4.46;100.00
51081;BME280;37130;55.670;37.596;2023-12-20T11:00:40;97778.16;;;4.50;100.00
51081;BME280;37130;55.670;37.596;2023-12-20T11:03:10;97753.75;;;4.32;100.00
51081;BME280;37130;55.670;37.596;2023-12-20T11:06:03;97771.72;;;4.39;100.00
51081;BME280;37130;55.670;37.596;2023-12-20T11:08:39;97781.81;;;4.47;100.00
51081;BME280;37130;55.670;37.596;2023-12-20T11:11:12;97778.88;;;4.53;100.00
51081;BME280;37130;55.670;37.596;2023-12-20T11:13:57;97743.44;;;4.29;100.00
51081;BME280;37130;55.670;37.596;2023-12-20T11:16:26;97776.09;;;4.56;100.00
51081;BME280;37130;55.670;37.596;2023-12-20T11:19:07;97773.63;;;4.53;100.00
51081;BME280;37130;55.670;37.596;2023-12-20T11:21:35;97784.13;;;4.53;100.00
51081;BME280;37130;55.670;37.596;2023-12-20T11:24:03;97742.22;;;4.18;100.00
51081;BME280;37130;55.670;37.596;2023-12-20T11:26:32;97779.34;;;4.44;100.00
51081;BME280;37130;55.670;37.596;2023-12-20T11:29:34;97787.59;;;4.36;100.00
51081;BME280;37130;55.670;37.596;2023-12-20T11:32:03;97776.88;;;4.41;100.00
51081;BME280;37130;55.670;37.596;2023-12-20T11:34:32;97775.78;;;4.45;100.00
51081;BME280;37130;55.670;37.596;2023-12-20T11:37:02;97769.09;;;4.39;100.00
51081;BME280;37130;55.670;37.596;2023-12-20T11:39:30;97775.94;;;4.42;100.00
51081;BME280;37130;55.670;37.596;2023-12-20T11:42:04;97792.44;;;4.44;100.00
51081;BME280;37130;55.670;37.596;2023-12-20T11:44:33;97775.09;;;4.42;100.00
51081;BME280;37130;55.670;37.596;2023-12-20T11:47:00;97722.59;;;4.10;100.00
51081;BME280;37130;55.670;37.596;2023-12-20T11:49:28;97703.06;;;4.00;100.00
51081;BME280;37130;55.670;37.596;2023-12-20T11:51:58;97768.94;;;4.43;100.00
51081;BME280;37130;55.670;37.596;2023-12-20T11:54:30;97771.41;;;4.46;100.00
51081;BME280;37130;55.670;37.596;2023-12-20T11:56:57;97770.63;;;4.44;100.00
51081;BME280;37130;55.670;37.596;2023-12-20T11:59:25;97782.81;;;4.45;100.00
51081;BME280;37130;55.670;37.596;2023-12-20T12:01:53;97724.44;;;4.08;100.00
51081;BME280;37130;55.670;37.596;2023-12-20T12:04:23;97770.09;;;4.37;100.00
51081;BME280;37130;55.670;37.596;2023-12-20T12:06:51;97771.03;;;4.36;100.00
51081;BME280;37130;55.670;37.596;2023-12-20T12:09:20;97783.13;;;4.38;100.00
51081;BME280;37130;55.670;37.596;2023-12-20T12:11:47;97788.38;;;4.38;100.00
51081;BME280;37130;55.670;37.596;2023-12-20T12:14:15;97768.19;;;4.41;100.00
51081;BME280;37130;55.670;37.596;2023-12-20T12:16:43;97727.69;;;4.13;100.00
51081;BME280;37130;55.670;37.596;2023-12-20T12:19:30;97777.34;;;4.32;100.00
51081;BME280;37130;55.670;37.596;2023-12-20T12:22:14;97777.44;;;4.30;100.00
51081;BME280;37130;55.670;37.596;2023-12-20T12:24:44;97734.03;;;4.09;100.00
51081;BME280;37130;55.670;37.596;2023-12-20T12:27:13;97777.13;;;4.36;100.00
51081;BME280;37130;55.670;37.596;2023-12-20T12:29:41;97778.91;;;4.36;100.00
51081;BME280;37130;55.670;37.596;2023-12-20T12:32:26;97756.50;;;4.13;100.00
51081;BME280;37130;55.670;37.596;2023-12-20T12:34:54;97787.09;;;4.30;100.00
51081;BME280;37130;55.670;37.596;2023-12-20T12:37:22;97707.00;;;3.73;100.00
51081;BME280;37130;55.670;37.596;2023-12-20T12:39:55;97757.53;;;3.93;100.00
51081;BME280;37130;55.670;37.596;2023-12-20T12:42:22;97790.22;;;4.19;100.00
51081;BME280;37130;55.670;37.596;2023-12-20T12:44:52;97797.19;;;4.20;100.00
51081;BME280;37130;55.670;37.596;2023-12-20T12:47:20;97754.91;;;3.93;100.00
51081;BME280;37130;55.670;37.596;2023-12-20T12:49:51;97792.94;;;4.17;100.00
51081;BME280;37130;55.670;37.596;2023-12-20T12:52:20;97799.88;;;4.18;100.00
51081;BME280;37130;55.670;37.596;2023-12-20T12:54:47;97754.28;;;3.88;100.00
51081;BME280;37130;55.670;37.596;2023-12-20T12:57:15;97808.72;;;4.16;100.00
51081;BME280;37130;55.670;37.596;2023-12-20T12:59:45;97745.75;;;3.67;100.00